• Join FlightAware (Why Join?)
  • Login
  • US Flag 
12:46PM EDT


 

Airport Tracker/Info


-or-


 

Live Flight TrackerFlight Track Log ✈ ASQ5976 ✈ 23-Jul-2013 ✈ KORD - KALB

Flight Track Log - Related Links

Times and Time Zones

All times are in EDT time to prevent confusion due to time zone crossing. See the ASQ5976 flight status page for this flight to view local times or setup timezone preferences in your user account.

Time Position Orientation Groundspeed Altitude Reporting Facility
EDT Latitude Longitude Course Direction KTS MPH feet Rate Location/Type
11:50AM 42.0167 -87.8333 90° East 180 207 3,400  Level Chicago TRACON
11:50AM 42.0247 -87.8150 59° Northeast 180 207 4,000 1,260 Climbing Chicago Center
11:51AM 42.0483 -87.7311 69° East 219 252 5,400 1,800 Climbing Chicago Center
11:52AM 42.1200 -87.4842 59° Northeast  Level FlightAware Approximate
11:52AM 42.0819 -87.6125 69° East 277 319 7,800  Level Chicago Center
11:53AM 42.1745 -87.3432 66° East  Level FlightAware Approximate
11:53AM 42.1167 -87.5117 65° Northeast 295 339 9,400  Level Chicago Center
11:54AM 42.2230 -87.1978 66° East  Level FlightAware Approximate
11:54AM 42.1550 -87.4047 64° Northeast 313 360 11,400  Level Chicago Center
11:55AM 42.2667 -87.0509 90° East  Level FlightAware Approximate
11:55AM 42.1944 -87.2964 64° Northeast 322 371 12,600  Level Chicago Center
11:56AM 42.2389 -87.1764 63° Northeast 355 409 13,200 840 Climbing Chicago Center
11:57AM 42.2828 -87.0161 70° East 378 435 14,400 1,020 Climbing Chicago Center
11:59AM 42.2867 -86.8656 88° East 398 458 15,400 900 Climbing Chicago Center
12:00PM 42.2914 -86.7175 87° East 397 457 16,300 900 Climbing Chicago Center
12:01PM 42.2969 -86.5592 87° East 403 464 17,300 960 Climbing Chicago Center
12:02PM 42.3053 -86.4039 86° East 412 474 18,400 960 Climbing Chicago Center
12:03PM 42.3094 -86.2497 88° East 414 476 19,400 900 Climbing Chicago Center
12:04PM 42.3147 -86.0914 87° East 423 487 20,300 960 Climbing Chicago Center
12:05PM 42.3133 -85.8983 90° East 430 495 21,500 1,020 Climbing Chicago Center
12:06PM 42.3114 -85.7378 91° East 432 497 22,500 960 Climbing Chicago Center
12:07PM 42.3083 -85.5756 91° East 433 498 23,600 960 Climbing Chicago Center
12:08PM 42.3067 -85.4128 91° East 435 501 24,600 960 Climbing Chicago Center
12:09PM 42.3039 -85.2492 91° East 437 503 25,600 1,080 Climbing Chicago Center
12:10PM 42.3011 -85.0542 91° East 436 502 26,900 660 Climbing Chicago Center
12:11PM 42.2956 -84.8875 93° East 443 510 27,000 60 Climbing Chicago Center
12:12PM 42.2917 -84.7142 92° East 460 529 27,100 360 Climbing Chicago Center
12:13PM 42.2875 -84.5367 92° East 472 543 27,800 720 Climbing Chicago Center
12:14PM 42.3011 -84.3650 84° East 463 533 28,700 960 Climbing Chicago Center
12:15PM 42.3261 -84.1981 78° East 457 526 29,800 1,140 Climbing Chicago Center
12:16PM 42.3525 -84.0000 80° East 449 517 31,100 1,140 Climbing Chicago Center
12:17PM 42.3758 -83.8361 79° East 447 514 32,200 1,020 Climbing Chicago Center
12:18PM 42.4050 -83.6342 79° East 443 510 33,500 1,020 Climbing Cleveland Center
12:19PM 42.4119 -83.4489 87° East 443 510 34,700 720 Climbing Cleveland Center
12:20PM 42.4156 -83.3028 88° East 443 510 35,000 120 Climbing Cleveland Center
12:21PM 42.4242 -83.1064 87° East 449 517 35,000  Level Cleveland Center
12:22PM 42.4300 -82.9264 87° East 468 539 35,000  Level Cleveland Center
12:23PM 42.4358 -82.7411 87° East 475 547 35,000  Level Cleveland Center
12:24PM 42.4411 -82.5611 88° East 480 552 35,000  Level Cleveland Center
12:25PM 42.4461 -82.3811 88° East 475 547 35,000  Level Cleveland Center
12:26PM 42.4508 -82.1956 88° East 475 547 35,000  Level Cleveland Center
12:27PM 42.4575 -82.0128 87° East 475 547 35,000  Level Cleveland Center
12:28PM 42.4592 -81.8722 89° East 475 547 35,000  Level Cleveland Center
12:29PM 42.4656 -81.6556 88° East 480 552 35,000  Level Cleveland Center
12:30PM 42.4692 -81.4697 88° East 489 563 35,000  Level Cleveland Center
12:31PM 42.4728 -81.2814 88° East 489 563 35,000  Level Cleveland Center
12:32PM 42.4758 -81.1011 89° East 489 563 35,000  Level Cleveland Center
12:33PM 42.4806 -80.9378 88° East 489 563 35,000  Level Cleveland Center
12:34PM 42.4808 -80.7550 90° East 484 557 35,000  Level Cleveland Center
12:35PM 42.4811 -80.5692 90° East 484 557 35,000  Level Cleveland Center
12:36PM 42.4850 -80.3861 88° East 479 551 35,000  Level Cleveland Center
12:37PM 42.4867 -80.2086 89° East 479 551 35,000  Level Cleveland Center
12:38PM 42.4881 -80.0061 89° East 479 551 35,000  Level Cleveland Center
12:39PM 42.4933 -79.8342 88° East 479 551 35,000  Level Cleveland Center
12:40PM 42.4919 -79.6511 91° East 484 557 35,000  Level Cleveland Center
12:41PM 42.4922 -79.4681 90° East 484 557 35,000  Level Cleveland Center
12:42PM 42.4925 -79.2878 90° East 479 551 35,000 -480 Level Cleveland Center
12:43PM 42.5008 -79.1131 86° East 474 545 34,100 -960 Descending Cleveland Center
12:44PM 42.5153 -78.9353 84° East 474 545 33,100 -1,020 Descending Cleveland Center
12:45PM 42.5272 -78.7603 85° East 469 540 32,100 -1,020 Descending Cleveland Center
12:46PM 42.5367 -78.5825 86° East 469 540 31,100 -600 Descending Cleveland Center
12:47PM 42.5500 -78.4017 84° East 469 540 31,000 -60 Descending Cleveland Center
12:48PM 42.5611 -78.2236 85° East 475 547 31,000  Level Cleveland Center
12:49PM 42.5719 -78.0400 85° East 480 552 31,000  Level Cleveland Center
12:50PM 42.5825 -77.8619 85° East 480 552 31,000  Level Cleveland Center
12:51PM 42.5942 -77.6639 85° East 480 552 31,000 -240 Level Cleveland Center
12:53PM 42.6150 -77.3106 85° East 485 558 30,300 -540 Descending Boston Center
12:54PM 42.6222 -77.1389 87° East 465 535 29,400 -660 Descending Boston Center
12:55PM 42.6300 -76.9956 86° East 465 535 29,000 -240 Descending Boston Center
12:56PM 42.6406 -76.7789 86° East 470 541 29,000  Level Boston Center
12:57PM 42.6494 -76.6017 86° East 475 547 29,000  Level Boston Center
12:58PM 42.6600 -76.4214 85° East 475 547 29,000  Level Boston Center
12:59PM 42.6661 -76.2411 87° East 475 547 29,000 -420 Level Boston Center
01:00PM 42.6761 -76.0636 86° East 475 547 28,200 -900 Descending Boston Center
01:01PM 42.6797 -75.8803 88° East 475 547 27,300 -900 Descending Boston Center
01:02PM 42.6872 -75.7000 87° East 475 547 26,400 -660 Descending Boston Center
01:03PM 42.6958 -75.5364 86° East 481 554 26,000 -780 Descending Boston Center
01:04PM 42.7006 -75.3558 88° East 474 545 24,900 -2,220 Descending Boston Center
01:05PM 42.7092 -75.1839 86° East 468 539 21,600 -3,060 Descending Boston Center
01:06PM 42.7153 -75.0117 87° East 456 525 18,800 -3,120 Descending Boston Center
01:07PM 42.7181 -74.8761 88° East 433 498 16,300 -3,060 Descending Boston Center
01:08PM 42.7236 -74.7208 87° East 414 476 13,600 -2,520 Descending Boston Center
01:09PM 42.7286 -74.5711 87° East 396 456 11,300 -1,380 Descending Boston Center
01:10PM 42.7228 -74.4297 93° East 369 425 10,800 -600 Descending Boston Center
01:11PM 42.6933 -74.3131 109° East 303 349 10,100 -1,380 Descending Boston Center
01:12PM 42.6639 -74.2075 111° Southeast 292 336 8,100 -1,920 Descending Boston Center
01:13PM 42.6342 -74.0967 110° East 291 335 6,300 -1,440 Descending Boston Center
01:14PM 42.6067 -73.9889 109° East 286 329 4,900 -1,260 Descending Boston Center
01:15PM 42.5808 -73.8922 110° East 281 323 3,600 -1,080 Descending Boston Center
01:16PM 42.5922 -73.8050 80° East 254 292 2,800 -840 Descending Boston Center